Time;durP1;ratioP1;P1;durP2;ratioP2;P2;SDS_P1;SDS_P2;PMS_P1;PMS_P2;Temp;Humidity;BMP_temperature;BMP_pressure;BME280_temperature;BME280_humidity;BME280_pressure;Samples;Min_cycle;Max_cycle;Signal;HPM_P1;HPM_P2
2023/12/13 00:02:20;;;;;;;0.40;0.40;;;7.70;99.90;;;;;;5031644;28;20181;-56
2023/12/13 00:04:45;;;;;;;0.60;0.60;;;7.60;99.90;;;;;;5031806;28;20274;-53
2023/12/13 00:07:11;;;;;;;2.67;0.93;;;7.70;99.90;;;;;;5031782;28;20210;-53
2023/12/13 00:09:38;;;;;;;0.30;0.30;;;7.90;99.90;;;;;;5031757;28;20179;-53
2023/12/13 00:12:04;;;;;;;0.30;0.30;;;8.00;99.90;;;;;;5031300;28;20187;-53
2023/12/13 00:14:30;;;;;;;0.60;0.60;;;8.00;99.90;;;;;;5031695;28;20202;-53
2023/12/13 00:16:55;;;;;;;0.30;0.30;;;8.10;99.90;;;;;;5031735;28;20198;-53
2023/12/13 00:19:21;;;;;;;1.63;0.60;;;8.20;99.90;;;;;;5031595;28;20418;-53
2023/12/13 00:21:47;;;;;;;0.50;0.40;;;8.30;99.90;;;;;;5031247;28;20167;-53
2023/12/13 00:24:13;;;;;;;0.50;0.50;;;8.20;99.90;;;;;;5031363;28;20221;-53
2023/12/13 00:26:39;;;;;;;0.30;0.30;;;8.00;99.90;;;;;;5031438;28;20421;-53
2023/12/13 00:29:05;;;;;;;0.40;0.40;;;7.90;99.90;;;;;;5031735;28;20170;-53
2023/12/13 00:31:31;;;;;;;0.60;0.60;;;7.90;99.90;;;;;;5031289;28;20179;-53
2023/12/13 00:33:56;;;;;;;0.60;0.60;;;7.90;99.90;;;;;;5031545;28;20473;-53
2023/12/13 00:36:22;;;;;;;0.50;0.50;;;7.90;99.90;;;;;;5031391;28;20258;-53
2023/12/13 00:38:48;;;;;;;0.80;0.73;;;8.00;99.90;;;;;;5031512;28;20170;-53
2023/12/13 00:41:13;;;;;;;0.60;0.60;;;8.00;99.90;;;;;;5031062;28;20175;-53
2023/12/13 00:43:39;;;;;;;0.30;0.30;;;8.00;99.90;;;;;;5031362;28;20195;-53
2023/12/13 00:46:05;;;;;;;0.40;0.40;;;8.10;99.90;;;;;;5031597;28;20178;-53
2023/12/13 00:48:32;;;;;;;0.40;0.40;;;8.10;99.90;;;;;;5031694;28;20648;-53
2023/12/13 00:50:58;;;;;;;0.35;0.35;;;8.00;99.90;;;;;;5035233;28;20198;-53
2023/12/13 00:53:24;;;;;;;0.40;0.40;;;8.10;99.90;;;;;;5035300;28;20203;-56
2023/12/13 00:55:52;;;;;;;0.50;0.50;;;8.10;99.90;;;;;;5035369;28;20182;-56
2023/12/13 00:58:18;;;;;;;2.17;0.60;;;8.10;99.90;;;;;;5035325;28;20163;-56
2023/12/13 01:00:43;;;;;;;0.80;0.80;;;8.10;99.90;;;;;;5035336;28;20248;-56
2023/12/13 01:03:09;;;;;;;0.30;0.30;;;8.00;99.90;;;;;;5035186;28;20222;-55
2023/12/13 01:05:34;;;;;;;0.30;0.30;;;8.00;99.90;;;;;;5035206;28;20653;-56
2023/12/13 01:08:00;;;;;;;0.53;0.53;;;8.10;99.90;;;;;;5035158;28;20254;-56
2023/12/13 01:10:26;;;;;;;0.50;0.50;;;8.10;99.90;;;;;;5034778;28;20181;-56
2023/12/13 01:12:51;;;;;;;0.60;0.60;;;8.00;99.90;;;;;;5034875;28;20757;-56
2023/12/13 01:15:17;;;;;;;0.50;0.50;;;7.80;99.90;;;;;;5034996;28;20170;-55
2023/12/13 01:17:43;;;;;;;0.73;0.43;;;7.90;99.90;;;;;;5034990;28;20179;-56
2023/12/13 01:20:09;;;;;;;0.50;0.50;;;7.90;99.90;;;;;;5034748;28;20194;-56
2023/12/13 01:22:35;;;;;;;0.88;0.88;;;7.90;99.90;;;;;;5034772;28;20237;-56
2023/12/13 01:25:02;;;;;;;0.30;0.30;;;7.90;99.90;;;;;;5034592;28;20225;-54
2023/12/13 01:27:28;;;;;;;0.45;0.45;;;8.00;99.90;;;;;;5034696;28;20175;-56
2023/12/13 01:29:54;;;;;;;0.40;0.40;;;8.00;99.90;;;;;;5034648;28;20174;-56
2023/12/13 01:32:19;;;;;;;0.40;0.40;;;8.10;99.90;;;;;;5034414;28;20217;-56
2023/12/13 01:34:45;;;;;;;1.03;0.50;;;8.10;99.90;;;;;;5034460;28;20253;-55
2023/12/13 01:37:11;;;;;;;0.40;0.40;;;8.10;99.90;;;;;;5034667;28;20174;-56
2023/12/13 01:39:37;;;;;;;0.52;0.52;;;8.10;99.90;;;;;;5034973;28;20179;-56
2023/12/13 01:42:03;;;;;;;0.40;0.40;;;7.70;99.90;;;;;;5034191;28;20270;-56
2023/12/13 01:44:29;;;;;;;0.30;0.30;;;7.70;99.90;;;;;;5034356;28;20433;-56
2023/12/13 01:46:55;;;;;;;0.50;0.50;;;7.80;99.90;;;;;;5035069;28;20233;-56
2023/12/13 01:49:21;;;;;;;0.30;0.30;;;7.80;99.90;;;;;;5034304;28;20174;-56
2023/12/13 01:51:47;;;;;;;0.75;0.75;;;7.80;99.90;;;;;;5034343;28;20541;-56
2023/12/13 01:54:15;;;;;;;0.40;0.40;;;7.80;99.90;;;;;;5034240;28;20260;-56
2023/12/13 01:56:43;;;;;;;1.05;1.05;;;7.80;99.90;;;;;;5034471;28;20183;-56
2023/12/13 01:59:10;;;;;;;2.05;1.77;;;7.80;99.90;;;;;;5034225;28;20249;-56
2023/12/13 02:01:36;;;;;;;0.40;0.40;;;7.80;99.90;;;;;;5033710;28;20254;-56
2023/12/13 02:04:03;;;;;;;0.40;0.40;;;7.70;99.90;;;;;;5034023;28;20274;-56
2023/12/13 02:06:30;;;;;;;0.40;0.40;;;7.70;99.90;;;;;;5034065;28;20175;-56
2023/12/13 02:08:56;;;;;;;0.40;0.40;;;7.60;99.90;;;;;;5034007;28;20185;-56
2023/12/13 02:11:21;;;;;;;0.30;0.30;;;7.50;99.90;;;;;;5033732;28;20174;-56
2023/12/13 02:13:48;;;;;;;0.53;0.53;;;7.60;99.90;;;;;;5033769;28;20221;-56
2023/12/13 02:16:13;;;;;;;0.30;0.30;;;7.70;99.90;;;;;;5033849;28;20459;-56
2023/12/13 02:18:39;;;;;;;0.40;0.40;;;7.70;99.90;;;;;;5033851;28;20649;-56
2023/12/13 02:21:08;;;;;;;0.30;0.30;;;7.60;99.90;;;;;;5033386;28;20409;-56
2023/12/13 02:23:35;;;;;;;0.40;0.40;;;7.60;99.90;;;;;;5033584;28;20341;-56
2023/12/13 02:26:02;;;;;;;0.45;0.45;;;7.60;99.90;;;;;;5033743;28;20640;-56
2023/12/13 02:28:29;;;;;;;1.15;1.15;;;7.60;99.90;;;;;;5033626;28;20183;-56
2023/12/13 02:30:58;;;;;;;0.63;0.43;;;7.50;99.90;;;;;;5033333;28;20226;-56
2023/12/13 02:33:28;;;;;;;0.50;0.40;;;7.50;99.90;;;;;;5033760;28;20210;-56
2023/12/13 02:35:59;;;;;;;2.63;0.93;;;7.50;99.90;;;;;;5033735;28;20722;-56
2023/12/13 02:38:25;;;;;;;0.70;0.55;;;7.50;99.90;;;;;;5033874;28;20187;-56
2023/12/13 02:40:52;;;;;;;0.40;0.40;;;7.40;99.90;;;;;;5033046;28;20175;-55
2023/12/13 02:43:18;;;;;;;0.47;0.47;;;7.40;99.90;;;;;;5033444;28;20465;-56
2023/12/13 02:45:44;;;;;;;0.40;0.40;;;7.40;99.90;;;;;;5033290;28;20260;-56
2023/12/13 02:48:10;;;;;;;0.40;0.40;;;7.50;99.90;;;;;;5033219;28;20405;-55
2023/12/13 02:50:36;;;;;;;0.57;0.57;;;7.60;99.90;;;;;;5033172;28;20175;-54
2023/12/13 02:53:08;;;;;;;0.40;0.40;;;7.60;99.90;;;;;;5033044;28;20194;-54
2023/12/13 02:55:34;;;;;;;0.60;0.50;;;7.50;99.90;;;;;;5033262;28;20177;-56
2023/12/13 02:58:00;;;;;;;0.40;0.40;;;7.50;99.90;;;;;;5033082;28;20250;-56
2023/12/13 03:00:26;;;;;;;0.40;0.40;;;7.60;99.90;;;;;;5032763;28;20167;-56
2023/12/13 03:02:51;;;;;;;0.40;0.40;;;7.70;99.90;;;;;;5032865;28;20595;-56
2023/12/13 03:05:17;;;;;;;0.60;0.60;;;7.70;99.90;;;;;;5032871;28;20590;-55
2023/12/13 03:07:43;;;;;;;1.40;0.70;;;7.70;99.90;;;;;;5015143;28;20716;-55
2023/12/13 03:10:09;;;;;;;0.67;0.53;;;7.70;99.90;;;;;;5032700;28;20405;-56
2023/12/13 03:12:35;;;;;;;0.40;0.40;;;7.50;99.90;;;;;;5032019;28;20546;-55
2023/12/13 03:15:01;;;;;;;2.05;0.57;;;7.50;99.90;;;;;;5032654;28;20461;-55
2023/12/13 03:17:26;;;;;;;0.40;0.40;;;7.60;99.90;;;;;;5032646;28;20554;-56
2023/12/13 03:19:52;;;;;;;0.80;0.80;;;7.70;99.90;;;;;;5032669;28;20895;-56
2023/12/13 03:22:18;;;;;;;0.40;0.40;;;7.70;99.90;;;;;;5032352;28;20178;-55
2023/12/13 03:24:43;;;;;;;0.50;0.50;;;7.70;99.90;;;;;;5032428;28;20715;-56
2023/12/13 03:27:09;;;;;;;6.63;0.67;;;7.80;99.90;;;;;;5032555;28;20436;-54
2023/12/13 03:29:35;;;;;;;0.30;0.30;;;7.80;99.90;;;;;;5032500;28;20662;-56
2023/12/13 03:32:00;;;;;;;0.30;0.30;;;7.80;99.90;;;;;;5032055;28;20410;-55
2023/12/13 03:34:26;;;;;;;2.43;1.37;;;7.80;99.90;;;;;;5032241;28;20270;-56
2023/12/13 03:36:52;;;;;;;0.53;0.53;;;7.70;99.90;;;;;;5032294;28;20619;-56
2023/12/13 03:39:19;;;;;;;0.40;0.40;;;7.70;99.90;;;;;;5032126;28;20171;-55
2023/12/13 03:41:44;;;;;;;0.30;0.30;;;7.70;99.90;;;;;;5030539;28;20245;-56
2023/12/13 03:44:10;;;;;;;5.10;1.70;;;7.80;99.90;;;;;;5032383;28;20286;-56
2023/12/13 03:46:36;;;;;;;0.30;0.30;;;7.70;99.90;;;;;;5032220;28;20179;-56
2023/12/13 03:49:01;;;;;;;5.03;1.00;;;7.70;99.90;;;;;;5032121;28;20645;-56
2023/12/13 03:51:27;;;;;;;0.40;0.40;;;7.80;99.90;;;;;;5031495;28;20202;-56
2023/12/13 03:53:53;;;;;;;0.30;0.30;;;7.70;99.90;;;;;;5031926;28;20640;-58
2023/12/13 03:56:18;;;;;;;0.40;0.40;;;7.60;99.90;;;;;;5032015;28;20193;-56
2023/12/13 03:58:44;;;;;;;0.30;0.30;;;7.50;99.90;;;;;;5032131;28;20171;-56
2023/12/13 04:01:10;;;;;;;0.93;0.80;;;7.40;99.90;;;;;;5031592;28;20178;-56
2023/12/13 04:03:36;;;;;;;0.40;0.40;;;7.50;99.90;;;;;;5031865;28;20207;-56
2023/12/13 04:06:03;;;;;;;5.38;1.98;;;7.60;99.90;;;;;;5031775;28;20194;-56
2023/12/13 04:08:28;;;;;;;0.30;0.30;;;7.60;99.90;;;;;;5032074;28;20264;-56
2023/12/13 04:10:54;;;;;;;0.40;0.37;;;7.60;99.90;;;;;;5031388;28;20726;-56
2023/12/13 04:13:20;;;;;;;0.80;0.80;;;7.50;99.90;;;;;;5031657;28;20209;-56
2023/12/13 04:15:45;;;;;;;0.40;0.40;;;7.50;99.90;;;;;;5031756;28;20169;-55
2023/12/13 04:18:12;;;;;;;0.90;0.57;;;7.50;99.90;;;;;;5031670;28;20181;-56
2023/12/13 04:20:37;;;;;;;0.40;0.40;;;7.50;99.90;;;;;;5031292;28;20174;-56
2023/12/13 04:23:03;;;;;;;0.40;0.40;;;7.60;99.90;;;;;;5030853;28;20185;-55
2023/12/13 04:25:29;;;;;;;0.98;0.50;;;7.60;99.90;;;;;;5031382;28;20178;-56
2023/12/13 04:27:54;;;;;;;0.83;0.70;;;7.60;99.90;;;;;;5031650;28;20175;-55
2023/12/13 04:30:20;;;;;;;0.63;0.63;;;7.70;99.90;;;;;;5030763;28;20178;-54
2023/12/13 04:32:46;;;;;;;0.73;0.73;;;7.70;99.90;;;;;;5031374;28;20177;-53
2023/12/13 04:35:11;;;;;;;0.40;0.40;;;7.70;99.90;;;;;;5031321;28;20187;-55
2023/12/13 04:37:40;;;;;;;0.30;0.30;;;7.60;99.90;;;;;;5031393;28;20684;-54
2023/12/13 04:40:07;;;;;;;0.30;0.30;;;7.60;99.90;;;;;;5031090;28;20163;-54
2023/12/13 04:42:33;;;;;;;10.32;0.55;;;7.70;99.90;;;;;;5030473;28;20179;-54
2023/12/13 04:44:59;;;;;;;0.40;0.40;;;7.70;99.90;;;;;;5030768;28;20201;-54
2023/12/13 04:47:25;;;;;;;0.40;0.40;;;7.80;99.90;;;;;;5030881;28;20179;-54
2023/12/13 04:49:51;;;;;;;0.50;0.50;;;7.80;99.90;;;;;;5030751;28;20171;-52
2023/12/13 04:52:16;;;;;;;0.60;0.60;;;7.80;99.90;;;;;;5030727;28;20609;-54
2023/12/13 04:54:42;;;;;;;2.23;0.50;;;7.80;99.90;;;;;;5031108;28;20218;-54
2023/12/13 04:57:08;;;;;;;0.70;0.53;;;7.70;99.90;;;;;;5031282;28;20178;-54
2023/12/13 04:59:33;;;;;;;0.93;0.70;;;7.70;99.90;;;;;;5031414;28;20236;-54
2023/12/13 05:01:59;;;;;;;0.30;0.30;;;7.80;99.90;;;;;;5030828;28;20588;-54
2023/12/13 05:04:25;;;;;;;1.60;0.53;;;7.80;99.90;;;;;;5031030;28;20200;-54
2023/12/13 05:06:50;;;;;;;1.80;0.73;;;7.70;99.90;;;;;;5030382;28;20181;-52
2023/12/13 05:09:16;;;;;;;0.70;0.40;;;7.70;99.90;;;;;;5031303;28;20201;-54
2023/12/13 05:11:41;;;;;;;0.40;0.40;;;7.60;99.90;;;;;;5030840;28;20229;-54
2023/12/13 05:14:07;;;;;;;0.60;0.50;;;7.60;99.90;;;;;;5031022;28;20286;-54
2023/12/13 05:16:33;;;;;;;0.30;0.30;;;7.50;99.90;;;;;;5031169;28;20214;-55
2023/12/13 05:19:00;;;;;;;0.50;0.50;;;7.50;99.90;;;;;;5031079;28;20668;-54
2023/12/13 05:21:25;;;;;;;0.82;0.82;;;7.30;99.90;;;;;;5030808;28;20193;-54
2023/12/13 05:23:51;;;;;;;0.77;0.77;;;7.30;99.90;;;;;;5030939;28;20300;-53
2023/12/13 05:26:17;;;;;;;0.30;0.30;;;7.30;99.90;;;;;;5031035;28;20230;-54
2023/12/13 05:28:43;;;;;;;0.40;0.40;;;7.20;99.90;;;;;;5031100;28;20677;-55
2023/12/13 05:31:20;;;;;;;1.08;1.08;;;7.20;99.90;;;;;;5030913;28;20202;-56
2023/12/13 05:33:47;;;;;;;0.63;0.63;;;7.50;99.90;;;;;;5031202;28;20236;-56
2023/12/13 05:36:12;;;;;;;3.90;1.20;;;8.30;99.90;;;;;;5034172;28;20179;-57
2023/12/13 05:38:38;;;;;;;1.30;1.20;;;9.10;99.90;;;;;;5034782;28;20679;-53
2023/12/13 05:41:04;;;;;;;0.50;0.50;;;9.80;99.90;;;;;;5034215;28;20780;-54
2023/12/13 05:43:30;;;;;;;0.30;0.30;;;9.80;99.90;;;;;;5034510;28;20612;-54
2023/12/13 05:45:56;;;;;;;0.30;0.30;;;9.40;99.90;;;;;;5034383;28;20207;-56
2023/12/13 05:48:21;;;;;;;0.60;0.50;;;8.90;99.90;;;;;;5034612;28;20262;-54
2023/12/13 05:50:47;;;;;;;0.50;0.40;;;8.50;99.90;;;;;;5033951;28;20209;-54
2023/12/13 05:53:13;;;;;;;0.40;0.40;;;8.20;99.90;;;;;;5033484;28;20203;-52
2023/12/13 05:55:38;;;;;;;0.40;0.40;;;7.90;99.90;;;;;;5034198;28;20640;-56
2023/12/13 05:58:04;;;;;;;0.40;0.40;;;7.80;99.90;;;;;;5033922;28;20501;-55
2023/12/13 06:00:31;;;;;;;0.40;0.40;;;7.70;99.90;;;;;;5032540;28;20178;-55
2023/12/13 06:02:58;;;;;;;0.45;0.45;;;7.60;99.90;;;;;;5033840;28;20581;-53
2023/12/13 06:05:24;;;;;;;0.30;0.30;;;7.60;99.90;;;;;;5033800;28;20278;-59
2023/12/13 06:07:50;;;;;;;0.30;0.30;;;7.60;99.90;;;;;;5034130;28;20181;-56
2023/12/13 06:10:17;;;;;;;0.40;0.40;;;7.60;99.90;;;;;;5033188;28;20171;-57
2023/12/13 06:12:43;;;;;;;0.30;0.30;;;7.50;99.90;;;;;;5033992;28;20958;-56
2023/12/13 06:15:09;;;;;;;1.07;0.77;;;7.50;99.90;;;;;;5033665;28;20286;-55
2023/12/13 06:17:35;;;;;;;0.40;0.40;;;7.40;99.90;;;;;;5033779;28;20501;-56
2023/12/13 06:20:01;;;;;;;0.70;0.70;;;7.40;99.90;;;;;;5033747;28;20755;-57
2023/12/13 06:22:26;;;;;;;0.67;0.67;;;7.30;99.90;;;;;;5033233;28;20408;-54
2023/12/13 06:24:52;;;;;;;0.40;0.40;;;7.30;99.90;;;;;;5032771;28;20214;-55
2023/12/13 06:27:18;;;;;;;0.50;0.50;;;7.30;99.90;;;;;;5033276;28;20178;-55
2023/12/13 06:29:43;;;;;;;0.30;0.30;;;7.40;99.90;;;;;;5033764;28;20254;-56
2023/12/13 06:32:09;;;;;;;1.17;0.93;;;7.40;99.90;;;;;;5032926;28;20256;-55
2023/12/13 06:34:35;;;;;;;2.20;2.00;;;7.50;99.90;;;;;;5033512;28;20258;-56
2023/12/13 06:37:01;;;;;;;0.40;0.40;;;7.40;99.90;;;;;;5032919;28;20414;-56
2023/12/13 06:39:26;;;;;;;0.50;0.50;;;7.20;99.90;;;;;;5033203;28;20677;-57
2023/12/13 06:41:52;;;;;;;0.57;0.57;;;7.20;99.90;;;;;;5033160;28;20175;-55
2023/12/13 06:44:18;;;;;;;1.03;0.40;;;7.20;99.90;;;;;;5033222;28;20195;-55
2023/12/13 06:46:43;;;;;;;0.73;0.73;;;7.30;99.90;;;;;;5032384;28;20193;-53
2023/12/13 06:49:09;;;;;;;0.77;0.77;;;7.40;99.90;;;;;;5033481;28;20726;-55
2023/12/13 06:51:36;;;;;;;0.50;0.50;;;7.30;99.90;;;;;;5032956;28;20181;-55
2023/12/13 06:54:02;;;;;;;0.50;0.50;;;7.30;99.90;;;;;;5032934;28;20232;-55
2023/12/13 06:56:28;;;;;;;0.50;0.50;;;7.30;99.90;;;;;;5033012;28;20209;-55
2023/12/13 06:58:53;;;;;;;0.30;0.30;;;7.30;99.90;;;;;;5032858;28;20236;-55
2023/12/13 07:01:20;;;;;;;0.40;0.40;;;7.20;99.90;;;;;;5032716;28;20179;-55
2023/12/13 07:03:46;;;;;;;0.40;0.40;;;7.20;99.90;;;;;;5032996;28;20202;-55
2023/12/13 07:06:16;;;;;;;0.30;0.30;;;7.20;99.90;;;;;;5032941;28;20713;-55
2023/12/13 07:08:41;;;;;;;0.30;0.30;;;7.20;99.90;;;;;;5032514;28;20187;-55
2023/12/13 07:11:07;;;;;;;0.30;0.30;;;7.20;99.90;;;;;;5032440;28;20257;-56
2023/12/13 07:13:33;;;;;;;0.40;0.40;;;7.30;99.90;;;;;;5032564;28;21046;-55
2023/12/13 07:15:58;;;;;;;1.00;1.00;;;7.30;99.90;;;;;;5032707;28;20167;-55
2023/12/13 07:18:25;;;;;;;0.77;0.77;;;7.30;99.90;;;;;;5032581;28;20534;-55
2023/12/13 07:20:51;;;;;;;0.40;0.40;;;7.20;99.90;;;;;;5032268;28;20186;-56
2023/12/13 07:23:16;;;;;;;0.70;0.40;;;7.20;99.90;;;;;;5032551;28;20210;-55
2023/12/13 07:25:42;;;;;;;0.80;0.77;;;7.10;99.90;;;;;;5032740;28;20174;-55
2023/12/13 07:28:08;;;;;;;2.43;1.67;;;7.10;99.90;;;;;;5032516;28;20175;-55
2023/12/13 07:30:34;;;;;;;1.73;1.10;;;7.10;99.90;;;;;;5032517;28;20175;-55
2023/12/13 07:33:00;;;;;;;0.40;0.40;;;7.10;99.90;;;;;;5032350;28;20539;-55
2023/12/13 07:35:28;;;;;;;0.30;0.30;;;7.10;99.90;;;;;;5032380;28;20174;-54
2023/12/13 07:37:53;;;;;;;0.50;0.47;;;7.00;99.90;;;;;;5032363;28;20260;-55
2023/12/13 07:40:19;;;;;;;0.87;0.40;;;7.10;99.90;;;;;;5032012;28;20261;-55
2023/12/13 07:42:46;;;;;;;0.30;0.30;;;7.10;99.90;;;;;;5032044;28;20503;-54
2023/12/13 07:45:13;;;;;;;0.60;0.60;;;7.10;99.90;;;;;;5032173;28;20198;-53
2023/12/13 07:47:39;;;;;;;0.40;0.40;;;7.10;99.90;;;;;;5032313;28;20188;-55
2023/12/13 07:50:06;;;;;;;0.37;0.37;;;7.10;99.90;;;;;;5032165;28;20261;-55
2023/12/13 07:52:32;;;;;;;0.35;0.35;;;7.10;99.90;;;;;;5032108;28;20646;-55
2023/12/13 07:54:58;;;;;;;0.30;0.30;;;7.10;99.90;;;;;;5031889;28;20301;-55
2023/12/13 07:57:23;;;;;;;0.40;0.40;;;7.20;99.90;;;;;;5031750;28;20956;-55
2023/12/13 07:59:49;;;;;;;0.97;0.97;;;7.20;99.90;;;;;;5031783;28;20252;-55
2023/12/13 08:02:14;;;;;;;0.40;0.40;;;7.10;99.90;;;;;;5031646;28;20169;-55
2023/12/13 08:04:43;;;;;;;0.40;0.40;;;7.20;99.90;;;;;;5032073;28;20229;-55
2023/12/13 08:07:09;;;;;;;0.40;0.40;;;7.20;99.90;;;;;;5031879;28;20592;-55
2023/12/13 08:09:34;;;;;;;0.40;0.40;;;7.20;99.90;;;;;;5031991;28;20205;-55
2023/12/13 08:12:00;;;;;;;0.67;0.67;;;7.30;99.90;;;;;;5031380;28;20193;-56
2023/12/13 08:14:30;;;;;;;0.40;0.40;;;7.40;99.90;;;;;;5031752;28;20216;-55
2023/12/13 08:16:56;;;;;;;0.40;0.40;;;7.40;99.90;;;;;;5032144;28;20174;-55
2023/12/13 08:19:22;;;;;;;0.30;0.30;;;7.50;99.90;;;;;;5031757;28;20193;-55
2023/12/13 08:21:48;;;;;;;4.07;1.37;;;7.50;99.90;;;;;;5031419;28;20170;-55
2023/12/13 08:24:14;;;;;;;0.40;0.40;;;7.60;99.90;;;;;;5031517;28;20456;-55
2023/12/13 08:26:39;;;;;;;0.40;0.40;;;7.60;99.90;;;;;;5031604;28;20667;-55
2023/12/13 08:29:05;;;;;;;0.43;0.43;;;7.60;99.90;;;;;;5031419;28;20185;-55
2023/12/13 08:31:31;;;;;;;0.30;0.30;;;7.70;99.90;;;;;;5031317;28;20175;-58
2023/12/13 08:33:57;;;;;;;0.30;0.30;;;7.70;99.90;;;;;;5031541;28;20839;-58
2023/12/13 08:36:22;;;;;;;0.30;0.30;;;7.80;99.90;;;;;;5031576;28;20233;-57
2023/12/13 08:38:48;;;;;;;0.40;0.40;;;7.90;99.90;;;;;;5031213;28;20180;-57
2023/12/13 08:41:14;;;;;;;0.40;0.40;;;8.00;99.90;;;;;;5030697;28;20198;-57
2023/12/13 08:43:40;;;;;;;0.50;0.50;;;8.00;99.90;;;;;;5031345;28;20201;-57
2023/12/13 08:46:06;;;;;;;0.30;0.30;;;7.90;99.90;;;;;;5031445;28;20258;-57
2023/12/13 08:48:33;;;;;;;0.50;0.50;;;7.80;99.90;;;;;;5031682;28;20802;-57
2023/12/13 08:50:59;;;;;;;0.30;0.30;;;7.70;99.90;;;;;;5031009;28;20412;-56
2023/12/13 08:53:25;;;;;;;0.47;0.47;;;7.80;99.90;;;;;;5031021;28;20206;-56
2023/12/13 08:55:51;;;;;;;1.90;0.40;;;7.80;99.90;;;;;;5031296;28;20410;-56
2023/12/13 08:58:17;;;;;;;0.33;0.33;;;7.80;99.90;;;;;;5031045;28;21205;-56
2023/12/13 09:00:43;;;;;;;0.60;0.40;;;7.80;99.90;;;;;;5027918;28;20459;-55
2023/12/13 09:03:08;;;;;;;0.60;0.40;;;7.80;99.90;;;;;;5030837;28;20543;-56
2023/12/13 09:05:35;;;;;;;2.40;1.23;;;7.70;99.90;;;;;;5030643;28;20175;-56
2023/12/13 09:08:01;;;;;;;0.30;0.30;;;7.80;99.90;;;;;;5029456;28;20179;-58
2023/12/13 09:10:26;;;;;;;0.30;0.30;;;7.90;99.90;;;;;;5031572;28;20173;-58
2023/12/13 09:12:52;;;;;;;0.40;0.40;;;8.00;99.90;;;;;;5034418;28;20258;-57
2023/12/13 09:15:18;;;;;;;0.70;0.50;;;8.10;99.90;;;;;;5035232;28;20274;-58
2023/12/13 09:17:47;;;;;;;0.50;0.40;;;8.10;99.90;;;;;;5035037;28;20170;-58
2023/12/13 09:20:16;;;;;;;0.50;0.40;;;8.00;99.90;;;;;;5034648;28;20207;-57
2023/12/13 09:22:43;;;;;;;1.05;1.05;;;8.00;99.90;;;;;;5034668;28;20183;-58
2023/12/13 09:25:12;;;;;;;0.30;0.30;;;8.00;99.90;;;;;;5034522;28;20217;-58
2023/12/13 09:27:38;;;;;;;7.63;1.30;;;8.10;99.90;;;;;;5034857;28;20167;-58
2023/12/13 09:30:04;;;;;;;0.40;0.40;;;8.00;99.90;;;;;;5054755;23;20231;-60
2023/12/13 09:32:31;;;;;;;0.40;0.40;;;8.10;99.90;;;;;;5035990;28;20577;-60
2023/12/13 09:34:57;;;;;;;0.50;0.50;;;8.20;99.90;;;;;;5035374;28;20206;-60
2023/12/13 09:37:23;;;;;;;0.30;0.30;;;8.20;99.90;;;;;;5035746;28;20163;-60
2023/12/13 09:39:48;;;;;;;0.40;0.40;;;8.20;99.90;;;;;;5035610;28;20429;-60
2023/12/13 09:42:15;;;;;;;0.50;0.50;;;8.20;99.90;;;;;;5039474;28;20181;-60
2023/12/13 09:44:42;;;;;;;0.35;0.35;;;8.10;99.90;;;;;;5044044;28;20191;-60
2023/12/13 09:47:09;;;;;;;0.65;0.65;;;8.00;99.90;;;;;;5045722;28;20170;-61
2023/12/13 09:49:35;;;;;;;0.40;0.40;;;7.90;99.90;;;;;;5035089;28;20537;-59
2023/12/13 09:52:06;;;;;;;0.50;0.40;;;7.70;99.90;;;;;;5035475;28;20201;-58
2023/12/13 09:54:32;;;;;;;0.50;0.50;;;7.70;99.90;;;;;;5036948;28;20194;-58
2023/12/13 09:56:58;;;;;;;0.30;0.30;;;7.50;99.90;;;;;;5037907;28;20246;-58
2023/12/13 09:59:27;;;;;;;0.30;0.30;;;7.50;99.90;;;;;;5038121;28;20167;-57
2023/12/13 10:01:52;;;;;;;0.50;0.50;;;7.60;99.90;;;;;;5036209;28;20259;-57
2023/12/13 10:04:18;;;;;;;0.80;0.80;;;7.70;99.90;;;;;;5036864;28;20188;-56
2023/12/13 10:06:45;;;;;;;0.30;0.30;;;7.80;99.90;;;;;;5038218;28;20555;-58
2023/12/13 10:09:11;;;;;;;0.30;0.30;;;7.90;99.90;;;;;;5036825;28;20836;-57
2023/12/13 10:11:37;;;;;;;0.30;0.30;;;7.90;99.90;;;;;;5035779;28;20206;-57
2023/12/13 10:14:03;;;;;;;0.32;0.32;;;7.90;99.90;;;;;;5036836;28;20206;-57
2023/12/13 10:16:28;;;;;;;7.30;0.77;;;7.90;99.90;;;;;;5037386;28;20171;-58
2023/12/13 10:18:55;;;;;;;0.30;0.30;;;8.00;99.90;;;;;;5037281;28;20174;-57
2023/12/13 10:21:20;;;;;;;0.30;0.30;;;8.00;99.90;;;;;;5035355;28;20194;-57
2023/12/13 10:23:46;;;;;;;0.30;0.30;;;8.00;99.90;;;;;;5036539;28;20186;-57
2023/12/13 10:26:12;;;;;;;0.40;0.40;;;7.90;99.90;;;;;;5036143;28;20174;-58
2023/12/13 10:28:38;;;;;;;1.05;0.80;;;8.00;99.90;;;;;;5036283;28;20197;-57
2023/12/13 10:31:04;;;;;;;0.30;0.30;;;8.00;99.90;;;;;;5035079;28;20214;-57
2023/12/13 10:33:30;;;;;;;0.40;0.40;;;7.90;99.90;;;;;;5037371;28;20582;-58
2023/12/13 10:35:58;;;;;;;0.30;0.30;;;7.90;99.90;;;;;;5036411;28;20722;-57
2023/12/13 10:38:26;;;;;;;0.30;0.30;;;7.90;99.90;;;;;;5036791;28;20270;-57
2023/12/13 10:40:53;;;;;;;0.30;0.30;;;7.90;99.90;;;;;;5037092;28;20684;-57
2023/12/13 10:43:20;;;;;;;0.38;0.38;;;7.90;99.90;;;;;;5036652;28;20181;-57
2023/12/13 10:46:05;;;;;;;0.30;0.30;;;7.80;99.90;;;;;;5036208;28;20174;-57
2023/12/13 10:48:35;;;;;;;0.40;0.40;;;7.70;99.90;;;;;;5036488;28;20185;-57
2023/12/13 10:51:02;;;;;;;2.05;0.90;;;7.70;99.90;;;;;;5036177;28;20209;-57
2023/12/13 10:53:32;;;;;;;0.35;0.35;;;7.70;99.90;;;;;;5036748;28;20230;-57
2023/12/13 10:56:01;;;;;;;1.77;0.60;;;7.70;99.90;;;;;;5036570;28;20234;-57
2023/12/13 10:58:27;;;;;;;0.50;0.50;;;7.80;99.90;;;;;;5036526;28;20181;-54
2023/12/13 11:00:53;;;;;;;0.40;0.40;;;7.80;99.90;;;;;;5036292;28;20198;-57
2023/12/13 11:03:35;;;;;;;0.30;0.30;;;7.70;99.90;;;;;;5036268;28;20975;-58
2023/12/13 11:06:11;;;;;;;0.30;0.30;;;7.70;99.90;;;;;;5035488;28;20182;-58
2023/12/13 11:08:40;;;;;;;0.80;0.80;;;7.60;99.90;;;;;;5035989;28;20184;-57
2023/12/13 11:11:09;;;;;;;0.30;0.30;;;7.70;99.90;;;;;;5035244;28;20254;-57
2023/12/13 11:13:45;;;;;;;0.30;0.30;;;8.00;99.90;;;;;;5034457;28;20664;-58
2023/12/13 11:16:24;;;;;;;0.30;0.30;;;8.30;99.90;;;;;;5034742;28;20667;-57
2023/12/13 11:18:55;;;;;;;0.50;0.50;;;8.50;99.90;;;;;;5036003;28;20210;-57
2023/12/13 11:21:32;;;;;;;0.30;0.30;;;8.60;99.90;;;;;;5034038;28;20195;-57
2023/12/13 11:24:09;;;;;;;0.40;0.30;;;8.70;99.90;;;;;;5033969;28;20179;-58
2023/12/13 11:26:40;;;;;;;0.30;0.30;;;8.80;99.90;;;;;;5035298;28;20175;-58
2023/12/13 11:29:42;;;;;;;0.30;0.30;;;8.90;99.90;;;;;;5035071;28;20171;-58
2023/12/13 11:32:08;;;;;;;0.40;0.40;;;8.80;99.90;;;;;;5003456;28;20198;-58
2023/12/13 11:34:35;;;;;;;0.30;0.30;;;8.90;99.90;;;;;;5035346;28;20210;-58
2023/12/13 11:37:08;;;;;;;0.50;0.50;;;9.00;99.90;;;;;;5034397;28;20258;-58
2023/12/13 11:39:38;;;;;;;0.40;0.40;;;9.10;99.90;;;;;;5041109;28;20643;-57
2023/12/13 11:42:08;;;;;;;0.52;0.40;;;9.10;99.90;;;;;;5051409;28;20179;-58
2023/12/13 11:44:37;;;;;;;1.25;0.77;;;9.10;99.90;;;;;;5040308;28;20167;-55
2023/12/13 11:47:10;;;;;;;0.30;0.30;;;9.10;99.90;;;;;;5023477;28;20171;-57
2023/12/13 11:49:40;;;;;;;1.00;0.90;;;9.10;99.90;;;;;;5023529;28;20183;-57
2023/12/13 11:52:06;;;;;;;0.30;0.30;;;9.30;99.90;;;;;;5024103;28;20163;-57
2023/12/13 11:54:33;;;;;;;0.32;0.32;;;9.20;99.90;;;;;;5024610;28;20203;-57
2023/12/13 11:56:59;;;;;;;0.30;0.30;;;9.10;99.90;;;;;;5023449;28;20656;-58
2023/12/13 11:59:25;;;;;;;0.70;0.67;;;9.20;99.90;;;;;;5024753;28;20228;-57
2023/12/13 12:01:51;;;;;;;0.40;0.40;;;9.20;99.90;;;;;;5024955;28;20411;-57
2023/12/13 12:04:19;;;;;;;0.60;0.60;;;8.90;99.90;;;;;;5023201;28;20214;-57
2023/12/13 12:06:47;;;;;;;1.02;0.77;;;8.70;99.90;;;;;;5024201;28;20269;-57
2023/12/13 12:09:12;;;;;;;0.98;0.50;;;8.80;99.90;;;;;;5024792;28;20171;-57
2023/12/13 12:11:38;;;;;;;0.80;0.80;;;8.60;99.90;;;;;;5022265;28;20677;-57
2023/12/13 12:14:10;;;;;;;0.50;0.50;;;8.60;99.90;;;;;;5023608;28;20757;-58
2023/12/13 12:16:39;;;;;;;0.40;0.40;;;8.60;99.90;;;;;;5024975;28;20182;-57
2023/12/13 12:19:06;;;;;;;0.70;0.70;;;8.70;99.90;;;;;;5024089;28;20171;-58
2023/12/13 12:21:32;;;;;;;0.40;0.40;;;8.80;99.90;;;;;;5023258;28;20252;-57
2023/12/13 12:24:01;;;;;;;0.60;0.50;;;9.00;99.90;;;;;;5025124;28;20224;-58
2023/12/13 12:26:27;;;;;;;2.15;2.05;;;9.10;99.90;;;;;;5023879;28;20239;-57
2023/12/13 12:28:53;;;;;;;0.40;0.40;;;9.00;99.90;;;;;;5022708;28;21658;-58
2023/12/13 12:31:18;;;;;;;0.40;0.40;;;9.00;99.90;;;;;;5035728;28;20448;-57
2023/12/13 12:33:53;;;;;;;0.40;0.40;;;9.00;99.90;;;;;;5054162;28;20471;-57
2023/12/13 12:36:18;;;;;;;0.30;0.30;;;8.90;99.90;;;;;;5053543;28;20158;-58
2023/12/13 12:38:46;;;;;;;0.83;0.83;;;8.80;99.90;;;;;;5053881;28;20166;-58
2023/12/13 12:41:12;;;;;;;0.30;0.30;;;8.80;99.90;;;;;;5053245;28;20569;-58
2023/12/13 12:43:37;;;;;;;0.93;0.90;;;8.70;99.90;;;;;;5053408;28;20174;-58
2023/12/13 12:46:03;;;;;;;0.30;0.30;;;8.70;99.90;;;;;;5056634;28;20170;-57
2023/12/13 12:48:29;;;;;;;0.50;0.50;;;8.60;99.90;;;;;;5057730;28;20181;-57
2023/12/13 12:50:54;;;;;;;0.50;0.50;;;8.50;99.90;;;;;;5057228;28;20190;-58
2023/12/13 12:53:20;;;;;;;0.43;0.43;;;8.40;99.90;;;;;;5058148;28;20239;-57
2023/12/13 12:55:46;;;;;;;1.58;0.40;;;8.20;99.90;;;;;;5057464;28;20224;-57